This is the latest recevied weather packets stored in our database for station/object vk4vs. If no packets are shown the sender has not sent any weather packets the latest 10 day(s).
| Time | Temp. | Humidity | Pressure | Rain* | Wind** | Luminosity | Snow |
|---|---|---|---|---|---|---|---|
| 1788152403 | 63° F | 55% | 769.7 mmHg | 0 in | - | - | - |
| 1788150604 | 63° F | 54% | 769.9 mmHg | 0 in | - | - | - |
| 1788148804 | 63° F | 55% | 769.9 mmHg | 0 in | - | - | - |
| 1788147004 | 63° F | 53% | 770.1 mmHg | 0 in | - | - | - |
| 1788145203 | 62° F | 57% | 770.3 mmHg | 0 in | - | - | - |
| 1788143404 | 61° F | 61% | 770.5 mmHg | 0 in | - | - | - |
| 1788141604 | 61° F | 62% | 770.8 mmHg | 0 in | - | - | - |
| 1788139803 | 60° F | 62% | 771 mmHg | 0 in | - | - | - |
| 1788138004 | 59° F | 67% | 771.1 mmHg | 0 in | - | - | - |
| 1788136204 | 59° F | 68% | 771.3 mmHg | 0 in | - | - | - |
| 1788134403 | 58° F | 71% | 771.4 mmHg | 0 in | - | - | - |
| 1788132604 | 57° F | 72% | 771.5 mmHg | 0 in | - | - | - |
| 1788130804 | 56° F | 77% | 771.4 mmHg | 0 in | - | - | - |
| 1788129003 | 54° F | 81% | 771.4 mmHg | 0 in | - | - | - |
| 1788127204 | 52° F | 85% | 771.1 mmHg | 0 in | - | - | - |
| 1788125403 | 50° F | 90% | 771.1 mmHg | 0 in | - | - | - |
| 1788123603 | 47° F | 96% | 770.9 mmHg | 0 in | - | - | - |
| 1788121804 | 45° F | 96% | 770.7 mmHg | 0 in | - | - | - |
| 1788120003 | 45° F | 96% | 770.3 mmHg | 0 in | - | - | - |
| 1788118204 | 45° F | 96% | 770.2 mmHg | 0 in | - | - | - |
| 1788116404 | 45° F | 96% | 770 mmHg | 0 in | - | - | - |
| 1788114604 | 44° F | 95% | 769.9 mmHg | 0 in | - | - | - |
| 1788112804 | 45° F | 94% | 769.9 mmHg | 0 in | - | - | - |
| 1788111003 | 45° F | 93% | 770.2 mmHg | 0 in | - | - | - |
| 1788109204 | 47° F | 92% | 770.4 mmHg | 0 in | - | - | - |
* Rain latest hour (hover to see other rain measurements)
** Current wind speed in m/s (hover to see current wind gust speed)